INFORMACIÓN METAR y TAF
METAR FOR GCXO
ADDS - METARS form results

(1614 UTC 14 December 2019)
Data provider http://aviationweather.gov/metar/data/
 
METAR text: GCXO 141600Z 35006KT 300V040 9999 FEW012 BKN020 16/11 Q1021 NOSIG
Conditions at: GCXO (TENERIFE/LOS ROD, ES) observed 1600 UTC 14 December 2019
Temperature: 16.0°C (61°F)
Dewpoint: 11.0°C (52°F) [RH = 72%]
Pressure (altimeter): 30.15 inches Hg (1021.0 mb)
Winds: from the N (350 degrees) at 7 MPH (6 knots; 3.1 m/s)
Visibility: 6 or more miles (10+ km)
Ceiling: 2000 feet AGL
Clouds: few clouds at 1200 feet AGL
broken clouds at 2000 feet AGL
Weather: no significant weather observed at this time

METAR text: GCXO 141530Z 36007KT 320V050 9999 FEW014 BKN023 16/13 Q1021 NOSIG
Conditions at: GCXO (TENERIFE/LOS ROD, ES) observed 1530 UTC 14 December 2019
Temperature: 16.0°C (61°F)
Dewpoint: 13.0°C (55°F) [RH = 82%]
Pressure (altimeter): 30.15 inches Hg (1021.0 mb)
Winds: from the N (360 degrees) at 8 MPH (7 knots; 3.6 m/s)
Visibility: 6 or more miles (10+ km)
Ceiling: 2300 feet AGL
Clouds: few clouds at 1400 feet AGL
broken clouds at 2300 feet AGL
Weather: no significant weather observed at this time

Forecast for: GCXO (TENERIFE/LOS ROD, ES)
Text: TAF GCXO 141400Z 1415/1515 36010KT 9999 BKN018 TX17/1415Z TN12/1506Z
Forecast period: 1500 UTC 14 December 2019 to 0100 UTC 15 December 2019
Forecast type: FROM: standard forecast or significant change
Winds: from the N (360 degrees) at 12 MPH (10 knots; 5.1 m/s)
Visibility: 6 or more miles 10+ km)
Ceiling: 1800 feet AGL
Clouds: broken clouds at 1800 feet AGL
Weather: no significant weather forecast for this period
Text: BECMG 1501/1503 16004KT
Forecast period: 0100 to 1500 UTC 15 December 2019
Forecast type: BECOMING: Conditions expected to become as follows by 0300 UTC 15 December 2019
Winds: from the SSE (160 degrees) at 5 MPH (4 knots; 2.1 m/s)
Visibility: 6 or more miles 10+ km)
Ceiling: 1800 feet AGL
Clouds: broken clouds at 1800 feet AGL
Weather: no significant weather forecast for this period
Text: TEMPO 1419/1508 BKN010
Forecast period: 1900 UTC 14 December 2019 to 0800 UTC 15 December 2019
Forecast type: TEMPORARY: The following changes expected for less than half the time period
Visibility: missing
Ceiling: 1000 feet AGL
Clouds: broken clouds at 1000 feet AGL
Weather: no significant weather forecast for this period

 MAPA DE AEROPUERTO

 INFORMACIÓN DE PISTA
Pista 12 Longitud 11155 ft Ancho 148 ft
Elevación 2060 ft Umbral desplazado 0 ft Rumbo de pista 111
Pista 30 Longitud 11155 ft Ancho 148 ft
Elevación 2002 ft Umbral desplazado 0 ft Rumbo de pista 291

 FRECUANCIAS DEL AEROPUERTO
Tipo APP Nombre APP Frecuencia 119.7 MHZ
Tipo ATIS Nombre ATIS Frecuencia 118.575 MHZ
Tipo GND Nombre GND Frecuencia 121.7 MHZ
Tipo TWR Nombre TWR Frecuencia 118.7 MHZ

 RADIO AYUDAS DEL AEROPUERTO
Tipo VOR-DME Nombre Tenerife Norte Frecuencia 117700 KHZ
Tipo NDB Nombre Tenerife Norte Frecuencia 410 KHZ



Powered by Virtual Airlines Manager [v2.6.2]